sensor_id;sensor_type;location;lat;lon;timestamp;pressure;altitude;pressure_sealevel;temperature;humidity
18569;BME280;14780;48.316;-1.050;2022-11-25T00:01:55;98487.16;;;24.65;43.97
18569;BME280;14780;48.316;-1.050;2022-11-25T00:04:40;98491.50;;;24.66;43.95
18569;BME280;14780;48.316;-1.050;2022-11-25T00:07:24;98489.31;;;24.68;43.82
18569;BME280;14780;48.316;-1.050;2022-11-25T00:10:09;98497.22;;;24.69;43.69
18569;BME280;14780;48.316;-1.050;2022-11-25T00:12:54;98500.78;;;24.70;43.70
18569;BME280;14780;48.316;-1.050;2022-11-25T00:15:38;98506.47;;;24.73;43.56
18569;BME280;14780;48.316;-1.050;2022-11-25T00:18:23;98510.84;;;24.74;43.59
18569;BME280;14780;48.316;-1.050;2022-11-25T00:21:12;98504.53;;;24.74;43.61
18569;BME280;14780;48.316;-1.050;2022-11-25T00:23:59;98497.44;;;24.73;43.46
18569;BME280;14780;48.316;-1.050;2022-11-25T00:26:45;98508.09;;;24.74;43.56
18569;BME280;14780;48.316;-1.050;2022-11-25T00:29:30;98511.94;;;24.73;43.50
18569;BME280;14780;48.316;-1.050;2022-11-25T00:32:15;98514.69;;;24.73;43.34
18569;BME280;14780;48.316;-1.050;2022-11-25T00:34:59;98515.81;;;24.72;43.36
18569;BME280;14780;48.316;-1.050;2022-11-25T00:37:44;98518.53;;;24.72;43.38
18569;BME280;14780;48.316;-1.050;2022-11-25T00:40:29;98521.28;;;24.72;43.33
18569;BME280;14780;48.316;-1.050;2022-11-25T00:43:14;98518.81;;;24.71;43.24
18569;BME280;14780;48.316;-1.050;2022-11-25T00:46:18;98527.03;;;24.71;43.33
18569;BME280;14780;48.316;-1.050;2022-11-25T00:49:03;98520.72;;;24.70;43.22
18569;BME280;14780;48.316;-1.050;2022-11-25T00:51:47;98517.72;;;24.72;43.27
18569;BME280;14780;48.316;-1.050;2022-11-25T00:54:33;98517.19;;;24.70;43.28
18569;BME280;14780;48.316;-1.050;2022-11-25T00:57:19;98520.16;;;24.73;43.29
18569;BME280;14780;48.316;-1.050;2022-11-25T01:00:05;98528.66;;;24.72;43.23
18569;BME280;14780;48.316;-1.050;2022-11-25T01:02:50;98530.59;;;24.71;43.10
18569;BME280;14780;48.316;-1.050;2022-11-25T01:05:35;98521.56;;;24.71;43.08
18569;BME280;14780;48.316;-1.050;2022-11-25T01:08:20;98519.34;;;24.73;43.09
18569;BME280;14780;48.316;-1.050;2022-11-25T01:11:11;98525.63;;;24.73;43.02
18569;BME280;14780;48.316;-1.050;2022-11-25T01:13:56;98526.75;;;24.72;43.18
18569;BME280;14780;48.316;-1.050;2022-11-25T01:16:42;98531.09;;;24.73;43.02
18569;BME280;14780;48.316;-1.050;2022-11-25T01:19:27;98537.13;;;24.70;43.05
18569;BME280;14780;48.316;-1.050;2022-11-25T01:22:12;98539.59;;;24.72;42.98
18569;BME280;14780;48.316;-1.050;2022-11-25T01:24:57;98546.16;;;24.71;42.85
18569;BME280;14780;48.316;-1.050;2022-11-25T01:27:41;98545.88;;;24.72;42.98
18569;BME280;14780;48.316;-1.050;2022-11-25T01:30:26;98553.50;;;24.75;42.99
18569;BME280;14780;48.316;-1.050;2022-11-25T01:33:11;98546.41;;;24.74;42.91
18569;BME280;14780;48.316;-1.050;2022-11-25T01:35:56;98559.56;;;24.72;42.99
18569;BME280;14780;48.316;-1.050;2022-11-25T01:38:41;98559.25;;;24.74;42.96
18569;BME280;14780;48.316;-1.050;2022-11-25T01:41:29;98553.78;;;24.74;42.91
18569;BME280;14780;48.316;-1.050;2022-11-25T01:44:28;98560.09;;;24.74;42.74
18569;BME280;14780;48.316;-1.050;2022-11-25T01:47:18;98557.34;;;24.74;42.72
18569;BME280;14780;48.316;-1.050;2022-11-25T01:50:10;98571.03;;;24.74;42.67
18569;BME280;14780;48.316;-1.050;2022-11-25T01:52:56;98583.09;;;24.73;42.74
18569;BME280;14780;48.316;-1.050;2022-11-25T01:55:47;98584.72;;;24.74;42.84
18569;BME280;14780;48.316;-1.050;2022-11-25T01:58:36;98596.47;;;24.75;42.75
18569;BME280;14780;48.316;-1.050;2022-11-25T02:01:22;98593.44;;;24.76;42.68
18569;BME280;14780;48.316;-1.050;2022-11-25T02:04:10;98607.13;;;24.76;42.58
18569;BME280;14780;48.316;-1.050;2022-11-25T02:07:01;98613.41;;;24.77;42.57
18569;BME280;14780;48.316;-1.050;2022-11-25T02:09:48;98621.91;;;24.75;42.60
18569;BME280;14780;48.316;-1.050;2022-11-25T02:12:36;98620.50;;;24.78;42.58
18569;BME280;14780;48.316;-1.050;2022-11-25T02:15:22;98623.53;;;24.76;42.61
18569;BME280;14780;48.316;-1.050;2022-11-25T02:18:07;98625.47;;;24.76;42.55
18569;BME280;14780;48.316;-1.050;2022-11-25T02:20:52;98630.94;;;24.76;42.53
18569;BME280;14780;48.316;-1.050;2022-11-25T02:23:46;98627.88;;;24.77;42.50
18569;BME280;14780;48.316;-1.050;2022-11-25T02:26:34;98636.09;;;24.77;42.43
18569;BME280;14780;48.316;-1.050;2022-11-25T02:29:19;98651.72;;;24.77;42.58
18569;BME280;14780;48.316;-1.050;2022-11-25T02:32:05;98653.63;;;24.76;42.56
18569;BME280;14780;48.316;-1.050;2022-11-25T02:34:49;98659.09;;;24.76;42.42
18569;BME280;14780;48.316;-1.050;2022-11-25T02:37:34;98668.94;;;24.77;42.54
18569;BME280;14780;48.316;-1.050;2022-11-25T02:40:19;98667.31;;;24.76;42.54
18569;BME280;14780;48.316;-1.050;2022-11-25T02:43:04;98668.94;;;24.77;42.38
18569;BME280;14780;48.316;-1.050;2022-11-25T02:48:41;98673.34;;;24.78;42.48
18569;BME280;14780;48.316;-1.050;2022-11-25T02:51:28;98670.59;;;24.78;42.47
18569;BME280;14780;48.316;-1.050;2022-11-25T02:54:15;98674.97;;;24.79;42.44
18569;BME280;14780;48.316;-1.050;2022-11-25T02:56:59;98685.06;;;24.79;42.42
18569;BME280;14780;48.316;-1.050;2022-11-25T02:59:44;98681.53;;;24.78;42.35
18569;BME280;14780;48.316;-1.050;2022-11-25T03:02:29;98683.16;;;24.79;42.49
18569;BME280;14780;48.316;-1.050;2022-11-25T03:05:13;98690.53;;;24.79;42.26
18569;BME280;14780;48.316;-1.050;2022-11-25T03:07:58;98695.50;;;24.77;42.25
18569;BME280;14780;48.316;-1.050;2022-11-25T03:10:43;98691.66;;;24.78;42.35
18569;BME280;14780;48.316;-1.050;2022-11-25T03:13:28;98700.69;;;24.78;42.33
18569;BME280;14780;48.316;-1.050;2022-11-25T03:16:12;98702.88;;;24.76;42.22
18569;BME280;14780;48.316;-1.050;2022-11-25T03:18:57;98707.25;;;24.77;42.19
18569;BME280;14780;48.316;-1.050;2022-11-25T03:21:42;98711.91;;;24.77;42.25
18569;BME280;14780;48.316;-1.050;2022-11-25T03:24:26;98709.97;;;24.77;42.10
18569;BME280;14780;48.316;-1.050;2022-11-25T03:27:11;98719.28;;;24.76;42.07
18569;BME280;14780;48.316;-1.050;2022-11-25T03:29:56;98723.97;;;24.76;42.29
18569;BME280;14780;48.316;-1.050;2022-11-25T03:32:40;98729.13;;;24.77;41.99
18569;BME280;14780;48.316;-1.050;2022-11-25T03:35:25;98730.78;;;24.78;42.09
18569;BME280;14780;48.316;-1.050;2022-11-25T03:38:10;98727.22;;;24.78;42.06
18569;BME280;14780;48.316;-1.050;2022-11-25T03:40:55;98737.88;;;24.79;41.93
18569;BME280;14780;48.316;-1.050;2022-11-25T03:43:40;98741.44;;;24.80;42.10
18569;BME280;14780;48.316;-1.050;2022-11-25T03:46:25;98748.84;;;24.79;41.98
18569;BME280;14780;48.316;-1.050;2022-11-25T03:49:09;98750.19;;;24.82;42.09
18569;BME280;14780;48.316;-1.050;2022-11-25T03:51:54;98753.19;;;24.80;41.95
18569;BME280;14780;48.316;-1.050;2022-11-25T03:54:39;98763.03;;;24.81;42.04
18569;BME280;14780;48.316;-1.050;2022-11-25T03:57:24;98760.59;;;24.80;41.92
18569;BME280;14780;48.316;-1.050;2022-11-25T04:00:09;98763.88;;;24.82;41.92
18569;BME280;14780;48.316;-1.050;2022-11-25T04:02:54;98759.19;;;24.82;41.86
18569;BME280;14780;48.316;-1.050;2022-11-25T04:05:40;98761.94;;;24.82;41.97
18569;BME280;14780;48.316;-1.050;2022-11-25T04:08:25;98759.19;;;24.82;41.83
18569;BME280;14780;48.316;-1.050;2022-11-25T04:11:11;98761.66;;;24.84;41.85
18569;BME280;14780;48.316;-1.050;2022-11-25T04:13:55;98777.56;;;24.82;41.85
18569;BME280;14780;48.316;-1.050;2022-11-25T04:16:40;98773.97;;;24.81;41.98
18569;BME280;14780;48.316;-1.050;2022-11-25T04:19:24;98780.28;;;24.82;41.88
18569;BME280;14780;48.316;-1.050;2022-11-25T04:22:09;98785.75;;;24.82;41.93
18569;BME280;14780;48.316;-1.050;2022-11-25T04:24:53;98788.19;;;24.83;41.85
18569;BME280;14780;48.316;-1.050;2022-11-25T04:27:38;98783.03;;;24.82;41.88
18569;BME280;14780;48.316;-1.050;2022-11-25T04:30:23;98790.13;;;24.83;41.99
18569;BME280;14780;48.316;-1.050;2022-11-25T04:33:08;98789.81;;;24.84;41.87
18569;BME280;14780;48.316;-1.050;2022-11-25T04:35:53;98792.88;;;24.83;41.88
18569;BME280;14780;48.316;-1.050;2022-11-25T04:38:37;98794.50;;;24.84;41.83
18569;BME280;14780;48.316;-1.050;2022-11-25T04:41:22;98802.44;;;24.85;41.76
18569;BME280;14780;48.316;-1.050;2022-11-25T04:44:07;98804.59;;;24.83;41.70
18569;BME280;14780;48.316;-1.050;2022-11-25T04:46:52;98811.72;;;24.84;41.69
18569;BME280;14780;48.316;-1.050;2022-11-25T04:49:36;98806.53;;;24.83;41.77
18569;BME280;14780;48.316;-1.050;2022-11-25T04:52:21;98814.44;;;24.84;41.80
18569;BME280;14780;48.316;-1.050;2022-11-25T04:55:07;98819.91;;;24.84;41.68
18569;BME280;14780;48.316;-1.050;2022-11-25T04:57:52;98829.25;;;24.83;41.65
18569;BME280;14780;48.316;-1.050;2022-11-25T05:00:37;98832.28;;;24.82;41.72
18569;BME280;14780;48.316;-1.050;2022-11-25T05:03:22;98828.72;;;24.81;41.73
18569;BME280;14780;48.316;-1.050;2022-11-25T05:06:07;98839.91;;;24.85;41.64
18569;BME280;14780;48.316;-1.050;2022-11-25T05:08:52;98837.44;;;24.83;41.62
18569;BME280;14780;48.316;-1.050;2022-11-25T05:11:37;98843.75;;;24.84;41.60
18569;BME280;14780;48.316;-1.050;2022-11-25T05:14:21;98847.28;;;24.84;41.66
18569;BME280;14780;48.316;-1.050;2022-11-25T05:17:13;98846.22;;;24.85;41.59
18569;BME280;14780;48.316;-1.050;2022-11-25T05:19:58;98845.38;;;24.85;41.58
18569;BME280;14780;48.316;-1.050;2022-11-25T05:22:43;98856.06;;;24.86;41.61
18569;BME280;14780;48.316;-1.050;2022-11-25T05:25:28;98857.97;;;24.86;41.50
18569;BME280;14780;48.316;-1.050;2022-11-25T05:28:12;98864.25;;;24.86;41.62
18569;BME280;14780;48.316;-1.050;2022-11-25T05:30:57;98865.88;;;24.87;41.44
18569;BME280;14780;48.316;-1.050;2022-11-25T05:33:42;98859.59;;;24.87;41.42
18569;BME280;14780;48.316;-1.050;2022-11-25T05:36:27;98862.63;;;24.85;41.60
18569;BME280;14780;48.316;-1.050;2022-11-25T05:39:12;98856.84;;;24.87;41.46
18569;BME280;14780;48.316;-1.050;2022-11-25T05:41:56;98857.16;;;24.85;41.58
18569;BME280;14780;48.316;-1.050;2022-11-25T05:44:41;98862.31;;;24.87;41.46
18569;BME280;14780;48.316;-1.050;2022-11-25T05:47:26;98868.09;;;24.85;41.56
18569;BME280;14780;48.316;-1.050;2022-11-25T05:50:10;98868.91;;;24.86;41.59
18569;BME280;14780;48.316;-1.050;2022-11-25T05:52:55;98879.06;;;24.85;41.53
18569;BME280;14780;48.316;-1.050;2022-11-25T05:55:40;98882.31;;;24.87;41.48
18569;BME280;14780;48.316;-1.050;2022-11-25T05:58:26;98881.78;;;24.85;41.53
18569;BME280;14780;48.316;-1.050;2022-11-25T06:01:13;98884.22;;;24.87;41.54
18569;BME280;14780;48.316;-1.050;2022-11-25T06:04:00;98896.00;;;24.87;41.41
18569;BME280;14780;48.316;-1.050;2022-11-25T06:06:45;98898.72;;;24.87;41.56
18569;BME280;14780;48.316;-1.050;2022-11-25T06:09:30;98897.91;;;24.87;41.47
18569;BME280;14780;48.316;-1.050;2022-11-25T06:12:14;98904.22;;;24.87;41.54
18569;BME280;14780;48.316;-1.050;2022-11-25T06:14:59;98914.31;;;24.87;41.46
18569;BME280;14780;48.316;-1.050;2022-11-25T06:17:44;98917.38;;;24.85;41.47
18569;BME280;14780;48.316;-1.050;2022-11-25T06:20:28;98922.25;;;24.88;41.53
18569;BME280;14780;48.316;-1.050;2022-11-25T06:23:13;98930.19;;;24.90;41.33
18569;BME280;14780;48.316;-1.050;2022-11-25T06:28:54;98933.22;;;24.88;41.30
18569;BME280;14780;48.316;-1.050;2022-11-25T06:31:39;98940.31;;;24.89;41.35
18569;BME280;14780;48.316;-1.050;2022-11-25T06:34:24;98947.72;;;24.89;41.44
18569;BME280;14780;48.316;-1.050;2022-11-25T06:37:09;98951.53;;;24.88;41.42
18569;BME280;14780;48.316;-1.050;2022-11-25T06:39:54;98962.22;;;24.89;41.40
18569;BME280;14780;48.316;-1.050;2022-11-25T06:42:39;98968.75;;;24.93;41.53
18569;BME280;14780;48.316;-1.050;2022-11-25T06:45:26;98974.25;;;24.93;41.50
18569;BME280;14780;48.316;-1.050;2022-11-25T06:48:11;98968.75;;;24.93;41.55
18569;BME280;14780;48.316;-1.050;2022-11-25T06:50:57;98972.56;;;24.92;41.60
18569;BME280;14780;48.316;-1.050;2022-11-25T06:53:43;98980.50;;;24.94;41.54
18569;BME280;14780;48.316;-1.050;2022-11-25T06:56:28;98975.88;;;24.94;41.59
18569;BME280;14780;48.316;-1.050;2022-11-25T06:59:13;98983.00;;;24.90;41.85
18569;BME280;14780;48.316;-1.050;2022-11-25T07:01:58;98991.22;;;24.90;41.82
18569;BME280;14780;48.316;-1.050;2022-11-25T07:04:43;98988.19;;;24.92;41.97
18569;BME280;14780;48.316;-1.050;2022-11-25T07:07:28;98991.72;;;24.92;41.94
18569;BME280;14780;48.316;-1.050;2022-11-25T07:10:12;98988.47;;;24.90;41.89
18569;BME280;14780;48.316;-1.050;2022-11-25T07:12:57;98996.69;;;24.90;42.02
18569;BME280;14780;48.316;-1.050;2022-11-25T07:15:43;99000.19;;;24.96;42.15
18569;BME280;14780;48.316;-1.050;2022-11-25T07:18:29;99012.78;;;25.02;42.10
18569;BME280;14780;48.316;-1.050;2022-11-25T07:21:17;99028.09;;;25.03;42.11
18569;BME280;14780;48.316;-1.050;2022-11-25T07:24:03;99027.03;;;25.04;42.04
18569;BME280;14780;48.316;-1.050;2022-11-25T07:26:49;99032.75;;;25.02;41.96
18569;BME280;14780;48.316;-1.050;2022-11-25T07:29:34;99037.16;;;24.98;41.97
18569;BME280;14780;48.316;-1.050;2022-11-25T07:32:19;99045.66;;;24.97;41.94
18569;BME280;14780;48.316;-1.050;2022-11-25T07:35:04;99060.72;;;24.94;42.03
18569;BME280;14780;48.316;-1.050;2022-11-25T07:37:49;99069.47;;;24.91;41.78
18569;BME280;14780;48.316;-1.050;2022-11-25T07:40:33;99079.38;;;24.87;41.65
18569;BME280;14780;48.316;-1.050;2022-11-25T07:43:18;99080.47;;;24.86;41.73
18569;BME280;14780;48.316;-1.050;2022-11-25T07:46:13;99079.38;;;24.82;41.58
18569;BME280;14780;48.316;-1.050;2022-11-25T07:49:04;99078.25;;;24.83;41.58
18569;BME280;14780;48.316;-1.050;2022-11-25T07:51:54;99079.63;;;24.81;41.65
18569;BME280;14780;48.316;-1.050;2022-11-25T07:54:39;99087.03;;;24.80;41.39
18569;BME280;14780;48.316;-1.050;2022-11-25T07:57:23;99093.63;;;24.79;41.59
18569;BME280;14780;48.316;-1.050;2022-11-25T08:00:09;99089.78;;;24.75;41.44
18569;BME280;14780;48.316;-1.050;2022-11-25T08:02:54;99100.47;;;24.77;41.39
18569;BME280;14780;48.316;-1.050;2022-11-25T08:05:38;99118.25;;;24.74;41.25
18569;BME280;14780;48.316;-1.050;2022-11-25T08:08:23;99117.97;;;24.76;41.38
18569;BME280;14780;48.316;-1.050;2022-11-25T08:11:10;99133.03;;;24.73;41.25
18569;BME280;14780;48.316;-1.050;2022-11-25T08:13:56;99134.13;;;24.72;41.36
18569;BME280;14780;48.316;-1.050;2022-11-25T08:16:42;99142.88;;;24.74;41.37
18569;BME280;14780;48.316;-1.050;2022-11-25T08:19:26;99137.69;;;24.73;41.16
18569;BME280;14780;48.316;-1.050;2022-11-25T08:22:11;99147.53;;;24.74;41.22
18569;BME280;14780;48.316;-1.050;2022-11-25T08:24:56;99148.63;;;24.73;41.32
18569;BME280;14780;48.316;-1.050;2022-11-25T08:27:41;99156.03;;;24.72;41.14
18569;BME280;14780;48.316;-1.050;2022-11-25T08:30:27;99153.81;;;24.69;41.22
18569;BME280;14780;48.316;-1.050;2022-11-25T08:33:12;99150.81;;;24.71;41.24
18569;BME280;14780;48.316;-1.050;2022-11-25T08:35:57;99155.47;;;24.70;41.40
18569;BME280;14780;48.316;-1.050;2022-11-25T08:38:43;99162.59;;;24.71;41.24
18569;BME280;14780;48.316;-1.050;2022-11-25T08:41:34;99177.91;;;24.72;41.25
18569;BME280;14780;48.316;-1.050;2022-11-25T08:44:19;99167.25;;;24.71;41.42
18569;BME280;14780;48.316;-1.050;2022-11-25T08:47:04;99175.19;;;24.72;41.31
18569;BME280;14780;48.316;-1.050;2022-11-25T08:49:53;99182.28;;;24.73;41.47
18569;BME280;14780;48.316;-1.050;2022-11-25T08:52:38;99186.13;;;24.72;41.39
18569;BME280;14780;48.316;-1.050;2022-11-25T08:55:23;99177.34;;;24.70;41.46
18569;BME280;14780;48.316;-1.050;2022-11-25T08:58:09;99181.44;;;24.73;41.31
18569;BME280;14780;48.316;-1.050;2022-11-25T09:00:56;99182.00;;;24.70;41.32
18569;BME280;14780;48.316;-1.050;2022-11-25T09:03:43;99192.69;;;24.71;41.41
18569;BME280;14780;48.316;-1.050;2022-11-25T09:06:29;99199.22;;;24.70;41.29
18569;BME280;14780;48.316;-1.050;2022-11-25T09:09:14;99211.00;;;24.71;41.35
18569;BME280;14780;48.316;-1.050;2022-11-25T09:11:59;99212.91;;;24.70;41.29
18569;BME280;14780;48.316;-1.050;2022-11-25T09:14:43;99226.88;;;24.74;41.24
18569;BME280;14780;48.316;-1.050;2022-11-25T09:17:28;99239.47;;;24.75;41.33
18569;BME280;14780;48.316;-1.050;2022-11-25T09:20:12;99247.97;;;24.73;41.36
18569;BME280;14780;48.316;-1.050;2022-11-25T09:23:01;99253.44;;;24.73;41.40
18569;BME280;14780;48.316;-1.050;2022-11-25T09:25:53;99254.78;;;24.71;41.36
18569;BME280;14780;48.316;-1.050;2022-11-25T09:28:38;99271.75;;;24.73;41.28
18569;BME280;14780;48.316;-1.050;2022-11-25T09:31:23;99273.41;;;24.69;41.22
18569;BME280;14780;48.316;-1.050;2022-11-25T09:34:08;99280.78;;;24.68;41.16
18569;BME280;14780;48.316;-1.050;2022-11-25T09:36:54;99286.78;;;24.70;41.19
18569;BME280;14780;48.316;-1.050;2022-11-25T09:39:38;99293.94;;;24.71;41.17
18569;BME280;14780;48.316;-1.050;2022-11-25T09:49:29;99304.88;;;24.71;41.18
18569;BME280;14780;48.316;-1.050;2022-11-25T09:55:43;99318.81;;;24.70;41.32
18569;BME280;14780;48.316;-1.050;2022-11-25T09:58:40;99321.84;;;24.73;41.26
18569;BME280;14780;48.316;-1.050;2022-11-25T10:01:30;99327.84;;;24.65;41.20
18569;BME280;14780;48.316;-1.050;2022-11-25T10:04:56;99339.88;;;24.69;41.17
18569;BME280;14780;48.316;-1.050;2022-11-25T10:07:48;99345.34;;;24.69;41.30
18569;BME280;14780;48.316;-1.050;2022-11-25T10:10:52;99348.94;;;24.70;41.31
18569;BME280;14780;48.316;-1.050;2022-11-25T10:17:39;99365.88;;;24.67;41.31
18569;BME280;14780;48.316;-1.050;2022-11-25T10:20:35;99382.03;;;24.68;41.28
18569;BME280;14780;48.316;-1.050;2022-11-25T10:23:33;99386.94;;;24.66;41.15
18569;BME280;14780;48.316;-1.050;2022-11-25T10:26:21;99387.75;;;24.67;41.15
18569;BME280;14780;48.316;-1.050;2022-11-25T10:32:21;99407.19;;;24.70;41.14
18569;BME280;14780;48.316;-1.050;2022-11-25T10:35:46;99408.28;;;24.69;41.25
18569;BME280;14780;48.316;-1.050;2022-11-25T10:38:36;99415.41;;;24.70;41.28
18569;BME280;14780;48.316;-1.050;2022-11-25T10:41:26;99421.44;;;24.72;41.18
18569;BME280;14780;48.316;-1.050;2022-11-25T10:44:27;99422.81;;;24.70;41.13
18569;BME280;14780;48.316;-1.050;2022-11-25T10:57:03;99437.59;;;24.74;41.11
18569;BME280;14780;48.316;-1.050;2022-11-25T10:59:57;99448.53;;;24.74;41.14
18569;BME280;14780;48.316;-1.050;2022-11-25T11:02:42;99452.94;;;24.75;41.07
18569;BME280;14780;48.316;-1.050;2022-11-25T11:05:32;99457.31;;;24.76;41.21
18569;BME280;14780;48.316;-1.050;2022-11-25T11:08:22;99457.56;;;24.74;41.10
18569;BME280;14780;48.316;-1.050;2022-11-25T11:16:57;99467.44;;;24.80;41.10
18569;BME280;14780;48.316;-1.050;2022-11-25T11:19:41;99470.72;;;24.82;41.13
18569;BME280;14780;48.316;-1.050;2022-11-25T11:22:26;99471.00;;;24.86;40.99
18569;BME280;14780;48.316;-1.050;2022-11-25T11:31:22;99475.69;;;24.85;40.79
18569;BME280;14780;48.316;-1.050;2022-11-25T11:40:12;99484.44;;;24.92;40.96
18569;BME280;14780;48.316;-1.050;2022-11-25T11:55:34;99486.66;;;25.05;41.06
18569;BME280;14780;48.316;-1.050;2022-11-25T12:01:35;99497.91;;;25.09;41.06
18569;BME280;14780;48.316;-1.050;2022-11-25T12:04:25;99502.56;;;25.08;40.91
18569;BME280;14780;48.316;-1.050;2022-11-25T12:11:15;99513.81;;;25.12;40.91
18569;BME280;14780;48.316;-1.050;2022-11-25T12:16:42;99517.91;;;25.09;40.91
18569;BME280;14780;48.316;-1.050;2022-11-25T12:19:55;99518.41;;;25.06;40.92
18569;BME280;14780;48.316;-1.050;2022-11-25T12:22:55;99518.72;;;25.05;40.92
18569;BME280;14780;48.316;-1.050;2022-11-25T12:25:41;99526.09;;;25.04;41.12
18569;BME280;14780;48.316;-1.050;2022-11-25T12:28:50;99523.63;;;25.03;40.98
18569;BME280;14780;48.316;-1.050;2022-11-25T12:31:41;99525.53;;;25.02;40.98
18569;BME280;14780;48.316;-1.050;2022-11-25T12:34:48;99534.84;;;25.01;40.90
18569;BME280;14780;48.316;-1.050;2022-11-25T12:38:11;99544.97;;;25.01;40.94
18569;BME280;14780;48.316;-1.050;2022-11-25T12:44:30;99544.16;;;25.00;40.96
18569;BME280;14780;48.316;-1.050;2022-11-25T12:47:17;99537.00;;;24.99;41.06
18569;BME280;14780;48.316;-1.050;2022-11-25T12:50:02;99544.16;;;25.00;41.17
18569;BME280;14780;48.316;-1.050;2022-11-25T12:53:08;99539.50;;;25.01;41.03
18569;BME280;14780;48.316;-1.050;2022-11-25T12:56:01;99538.69;;;25.00;41.14
18569;BME280;14780;48.316;-1.050;2022-11-25T13:10:52;99569.88;;;24.99;41.37
18569;BME280;14780;48.316;-1.050;2022-11-25T13:14:03;99569.56;;;24.96;41.17
18569;BME280;14780;48.316;-1.050;2022-11-25T13:16:56;99574.50;;;24.94;41.31
18569;BME280;14780;48.316;-1.050;2022-11-25T13:19:41;99578.59;;;24.91;41.23
18569;BME280;14780;48.316;-1.050;2022-11-25T13:22:26;99586.25;;;24.89;41.25
18569;BME280;14780;48.316;-1.050;2022-11-25T13:25:26;99583.53;;;24.89;41.23
18569;BME280;14780;48.316;-1.050;2022-11-25T13:31:24;99586.81;;;24.86;41.27
18569;BME280;14780;48.316;-1.050;2022-11-25T13:37:33;99587.31;;;24.83;41.29
18569;BME280;14780;48.316;-1.050;2022-11-25T13:43:20;99596.03;;;24.75;41.63
18569;BME280;14780;48.316;-1.050;2022-11-25T13:46:05;99605.34;;;24.74;41.62
18569;BME280;14780;48.316;-1.050;2022-11-25T13:48:50;99608.63;;;24.76;41.61
18569;BME280;14780;48.316;-1.050;2022-11-25T13:51:36;99607.84;;;24.76;41.45
18569;BME280;14780;48.316;-1.050;2022-11-25T13:54:34;99614.66;;;24.73;41.53
18569;BME280;14780;48.316;-1.050;2022-11-25T14:00:41;99620.69;;;24.75;41.44
18569;BME280;14780;48.316;-1.050;2022-11-25T14:09:45;99630.78;;;24.70;41.66
18569;BME280;14780;48.316;-1.050;2022-11-25T14:15:48;99633.22;;;24.66;41.48
18569;BME280;14780;48.316;-1.050;2022-11-25T14:19:12;99643.06;;;24.67;41.48
18569;BME280;14780;48.316;-1.050;2022-11-25T14:25:18;99645.50;;;24.64;41.53
18569;BME280;14780;48.316;-1.050;2022-11-25T14:28:32;99640.84;;;24.59;41.63
18569;BME280;14780;48.316;-1.050;2022-11-25T14:31:23;99639.69;;;24.55;41.84
18569;BME280;14780;48.316;-1.050;2022-11-25T14:37:45;99645.69;;;24.52;41.70
18569;BME280;14780;48.316;-1.050;2022-11-25T14:40:46;99644.03;;;24.51;41.72
18569;BME280;14780;48.316;-1.050;2022-11-25T14:43:42;99644.03;;;24.51;41.94
18569;BME280;14780;48.316;-1.050;2022-11-25T14:46:28;99644.28;;;24.50;41.82
18569;BME280;14780;48.316;-1.050;2022-11-25T14:49:13;99648.38;;;24.47;41.92
18569;BME280;14780;48.316;-1.050;2022-11-25T14:51:58;99656.56;;;24.47;41.81
18569;BME280;14780;48.316;-1.050;2022-11-25T14:54:43;99662.03;;;24.47;41.84
18569;BME280;14780;48.316;-1.050;2022-11-25T14:57:35;99663.97;;;24.47;42.01
18569;BME280;14780;48.316;-1.050;2022-11-25T15:00:21;99654.69;;;24.48;41.67
18569;BME280;14780;48.316;-1.050;2022-11-25T15:03:13;99655.47;;;24.48;41.94
18569;BME280;14780;48.316;-1.050;2022-11-25T15:06:04;99657.66;;;24.46;41.76
18569;BME280;14780;48.316;-1.050;2022-11-25T15:08:55;99657.66;;;24.46;41.76
18569;BME280;14780;48.316;-1.050;2022-11-25T15:11:41;99668.63;;;24.46;41.88
18569;BME280;14780;48.316;-1.050;2022-11-25T15:14:28;99667.81;;;24.46;41.87
18569;BME280;14780;48.316;-1.050;2022-11-25T15:17:33;99677.06;;;24.45;41.70
18569;BME280;14780;48.316;-1.050;2022-11-25T15:20:21;99675.44;;;24.44;41.90
18569;BME280;14780;48.316;-1.050;2022-11-25T15:23:12;99677.34;;;24.43;41.78
18569;BME280;14780;48.316;-1.050;2022-11-25T15:26:03;99685.56;;;24.43;41.82
18569;BME280;14780;48.316;-1.050;2022-11-25T15:28:54;99681.44;;;24.41;41.84
18569;BME280;14780;48.316;-1.050;2022-11-25T15:31:40;99697.84;;;24.41;42.03
18569;BME280;14780;48.316;-1.050;2022-11-25T15:34:28;99706.31;;;24.39;41.84
18569;BME280;14780;48.316;-1.050;2022-11-25T15:37:13;99710.13;;;24.38;41.94
18569;BME280;14780;48.316;-1.050;2022-11-25T15:40:28;99713.94;;;24.37;41.80
18569;BME280;14780;48.316;-1.050;2022-11-25T15:43:28;99721.84;;;24.34;42.05
18569;BME280;14780;48.316;-1.050;2022-11-25T15:46:14;99724.84;;;24.32;41.76
18569;BME280;14780;48.316;-1.050;2022-11-25T15:49:03;99720.47;;;24.31;42.03
18569;BME280;14780;48.316;-1.050;2022-11-25T15:54:43;99738.81;;;24.36;41.89
18569;BME280;14780;48.316;-1.050;2022-11-25T15:57:36;99746.25;;;24.40;41.71
18569;BME280;14780;48.316;-1.050;2022-11-25T16:00:23;99750.06;;;24.39;41.77
18569;BME280;14780;48.316;-1.050;2022-11-25T16:03:19;99746.78;;;24.37;41.63
18569;BME280;14780;48.316;-1.050;2022-11-25T16:09:03;99764.41;;;24.51;41.09
18569;BME280;14780;48.316;-1.050;2022-11-25T16:12:05;99761.13;;;24.49;41.05
18569;BME280;14780;48.316;-1.050;2022-11-25T16:14:51;99768.19;;;24.45;41.08
18569;BME280;14780;48.316;-1.050;2022-11-25T16:17:36;99772.78;;;24.40;41.10
18569;BME280;14780;48.316;-1.050;2022-11-25T16:20:23;99768.13;;;24.40;40.95
18569;BME280;14780;48.316;-1.050;2022-11-25T16:23:10;99781.56;;;24.42;40.88
18569;BME280;14780;48.316;-1.050;2022-11-25T16:26:17;99776.06;;;24.42;40.83
18569;BME280;14780;48.316;-1.050;2022-11-25T16:31:47;99782.63;;;24.41;40.89
18569;BME280;14780;48.316;-1.050;2022-11-25T16:34:32;99781.03;;;24.45;40.97
18569;BME280;14780;48.316;-1.050;2022-11-25T16:37:16;99785.69;;;24.44;40.79
18569;BME280;14780;48.316;-1.050;2022-11-25T16:40:02;99786.78;;;24.48;40.93
18569;BME280;14780;48.316;-1.050;2022-11-25T16:42:49;99798.81;;;24.47;40.76
18569;BME280;14780;48.316;-1.050;2022-11-25T16:45:34;99797.75;;;24.48;40.86